createdAt,value
2023-08-04T02:36:56.239Z,100.00
2023-08-04T02:39:26.398Z,100.00
2023-08-04T02:42:02.349Z,100.00
2023-08-04T02:44:33.255Z,100.00
2023-08-04T02:47:03.493Z,100.00
2023-08-04T02:49:34.406Z,100.00
2023-08-04T02:52:04.345Z,100.00
2023-08-04T02:54:35.510Z,100.00
2023-08-04T02:57:04.874Z,100.00
2023-08-04T02:59:34.633Z,100.00
2023-08-04T03:02:03.714Z,100.00
2023-08-04T03:04:32.778Z,95.62
2023-08-04T03:07:01.972Z,100.00
2023-08-04T03:09:31.667Z,100.00
2023-08-04T03:12:00.551Z,99.21
2023-08-04T03:14:32.650Z,92.65
2023-08-04T03:17:03.461Z,98.02
2023-08-04T03:19:32.565Z,91.93
2023-08-04T03:22:01.537Z,93.89
2023-08-04T03:24:32.447Z,92.01
2023-08-04T03:27:04.358Z,100.00
2023-08-04T03:29:33.394Z,100.00
2023-08-04T03:32:02.620Z,100.00
2023-08-04T03:34:31.684Z,92.49
2023-08-04T03:37:00.871Z,100.00
2023-08-04T03:39:31.221Z,100.00
2023-08-04T03:42:00.540Z,96.33
2023-08-04T03:44:37.372Z,97.48
2023-08-04T03:47:07.101Z,100.00
2023-08-04T03:49:36.333Z,100.00
2023-08-04T03:52:05.830Z,100.00
2023-08-04T03:54:34.888Z,100.00
2023-08-04T03:57:04.673Z,100.00
2023-08-04T03:59:33.541Z,100.00
2023-08-04T04:02:02.697Z,100.00
2023-08-04T04:04:31.766Z,100.00
2023-08-04T04:07:00.759Z,100.00
2023-08-04T04:09:32.109Z,100.00
2023-08-04T04:12:01.109Z,98.43
2023-08-04T04:14:30.170Z,100.00
2023-08-04T04:16:59.183Z,100.00
2023-08-04T04:19:28.378Z,100.00
2023-08-04T04:22:00.032Z,89.46
2023-08-04T04:24:29.402Z,98.47
2023-08-04T04:27:01.313Z,88.43
2023-08-04T04:29:30.764Z,85.36
2023-08-04T04:31:59.812Z,95.94
2023-08-04T04:34:29.537Z,100.00
2023-08-04T04:37:00.815Z,100.00
2023-08-04T04:39:33.013Z,97.60
2023-08-04T04:42:02.172Z,78.55
2023-08-04T04:44:32.004Z,100.00
2023-08-04T04:47:01.839Z,97.97
2023-08-04T04:49:31.806Z,85.96
2023-08-04T04:52:00.909Z,93.18
2023-08-04T04:54:29.981Z,75.89
2023-08-04T04:56:59.010Z,80.24
2023-08-04T04:59:29.073Z,77.68
2023-08-04T05:01:58.440Z,85.46
2023-08-04T05:04:27.505Z,67.53
2023-08-04T05:06:56.460Z,69.84
2023-08-04T05:09:25.500Z,67.96
2023-08-04T05:11:54.812Z,70.02
2023-08-04T05:14:24.735Z,73.74
2023-08-04T05:16:54.285Z,64.65
2023-08-04T05:19:23.610Z,71.03
2023-08-04T05:21:52.603Z,72.82
2023-08-04T05:24:21.566Z,69.93
2023-08-04T05:26:50.750Z,64.18
2023-08-04T05:29:19.764Z,66.64
2023-08-04T05:31:49.672Z,63.26
2023-08-04T05:34:18.963Z,64.24
2023-08-04T05:36:48.000Z,74.05
2023-08-04T05:39:16.988Z,88.34
2023-08-04T05:41:47.522Z,58.34
2023-08-04T05:44:16.762Z,61.46
2023-08-04T05:46:45.813Z,62.54
2023-08-04T05:49:14.810Z,60.48
2023-08-04T05:51:43.740Z,57.59
2023-08-04T05:54:12.716Z,60.48
2023-08-04T05:56:41.947Z,65.14
2023-08-04T05:59:29.372Z,70.07
2023-08-04T06:01:59.173Z,64.38
2023-08-04T06:04:28.167Z,63.91
2023-08-04T06:06:59.419Z,66.88
2023-08-04T06:09:28.442Z,65.68
2023-08-04T06:11:57.516Z,61.43
2023-08-04T06:14:26.631Z,63.88
2023-08-04T06:16:56.398Z,68.29
2023-08-04T06:19:43.502Z,70.08
2023-08-04T06:22:15.503Z,72.25
2023-08-04T06:24:44.763Z,75.90
2023-08-04T06:27:14.136Z,79.02
2023-08-04T06:29:43.061Z,75.87
2023-08-04T06:32:12.798Z,76.49
2023-08-04T06:34:42.611Z,76.17
2023-08-04T06:37:11.622Z,74.06
2023-08-04T06:39:40.485Z,82.72
2023-08-04T06:42:09.585Z,100.00
2023-08-04T06:44:39.125Z,88.41
2023-08-04T06:47:08.395Z,81.36
2023-08-04T06:49:38.060Z,82.53
2023-08-04T06:52:07.659Z,100.00
2023-08-04T06:54:37.397Z,89.27
2023-08-04T06:57:07.600Z,63.37
2023-08-04T06:59:55.436Z,68.78
2023-08-04T07:02:44.314Z,79.65
2023-08-04T07:05:13.990Z,91.98
2023-08-04T07:07:43.059Z,78.14
2023-08-04T07:10:12.958Z,79.76
2023-08-04T07:12:41.936Z,98.69
2023-08-04T07:15:11.238Z,83.01
2023-08-04T07:17:40.669Z,82.61
2023-08-04T07:20:11.141Z,88.19
2023-08-04T07:22:40.386Z,88.17
2023-08-04T07:25:09.952Z,87.00
2023-08-04T07:27:39.053Z,87.64
2023-08-04T07:30:13.270Z,96.06
2023-08-04T07:32:44.881Z,100.00
2023-08-04T07:35:13.909Z,100.00
2023-08-04T07:37:46.777Z,100.00
2023-08-04T07:40:15.989Z,100.00
2023-08-04T07:42:45.418Z,100.00
2023-08-04T07:45:14.519Z,100.00
2023-08-04T07:47:43.704Z,100.00
2023-08-04T07:50:13.057Z,100.00
2023-08-04T07:52:42.016Z,99.31
2023-08-04T07:55:12.840Z,88.70
2023-08-04T07:57:41.952Z,92.22
2023-08-04T08:00:12.105Z,75.72
2023-08-04T08:02:41.101Z,69.85
2023-08-04T08:05:10.546Z,73.22
2023-08-04T08:07:45.514Z,66.59
2023-08-04T08:10:17.065Z,70.75
2023-08-04T08:12:46.454Z,62.59
2023-08-04T08:15:15.535Z,77.69
2023-08-04T08:17:44.800Z,80.51
2023-08-04T08:23:17.406Z,89.32
2023-08-04T08:25:49.099Z,99.67
2023-08-04T08:28:18.096Z,100.00
2023-08-04T08:30:47.222Z,100.00
2023-08-04T08:33:16.356Z,100.00
2023-08-04T08:35:45.394Z,100.00
2023-08-04T08:38:14.451Z,100.00
2023-08-04T08:41:01.687Z,100.00
2023-08-04T08:43:32.373Z,100.00
2023-08-04T08:46:01.527Z,100.00
2023-08-04T08:48:37.137Z,100.00
2023-08-04T08:51:22.312Z,100.00
2023-08-04T08:53:52.165Z,100.00
2023-08-04T08:56:22.181Z,100.00
2023-08-04T08:58:51.425Z,100.00
2023-08-04T09:01:21.710Z,100.00
2023-08-04T09:03:50.788Z,100.00
2023-08-04T09:06:22.374Z,100.00
2023-08-04T09:08:52.500Z,100.00
2023-08-04T09:11:22.265Z,100.00
2023-08-04T09:13:51.844Z,100.00
2023-08-04T09:16:38.554Z,100.00
2023-08-04T09:19:09.656Z,100.00
2023-08-04T09:21:39.631Z,100.00
2023-08-04T09:24:12.640Z,100.00
2023-08-04T09:26:46.028Z,100.00
2023-08-04T09:29:16.601Z,100.00
2023-08-04T09:31:50.877Z,100.00
2023-08-04T09:34:20.812Z,100.00
2023-08-04T09:36:53.408Z,100.00
2023-08-04T09:39:26.580Z,100.00
2023-08-04T09:41:57.009Z,100.00
2023-08-04T09:44:42.773Z,100.00
2023-08-04T09:47:12.732Z,100.00
2023-08-04T09:49:42.635Z,100.00
2023-08-04T09:52:12.452Z,100.00
2023-08-04T09:54:41.605Z,100.00
2023-08-04T09:57:11.632Z,100.00
2023-08-04T09:59:42.586Z,100.00
2023-08-04T10:02:12.790Z,100.00
2023-08-04T10:04:43.848Z,100.00
2023-08-04T10:07:13.448Z,100.00
2023-08-04T10:09:43.476Z,100.00
2023-08-04T10:12:15.307Z,100.00
2023-08-04T10:14:45.627Z,100.00
2023-08-04T10:17:15.897Z,100.00
2023-08-04T10:19:45.241Z,100.00
2023-08-04T10:22:15.907Z,100.00
2023-08-04T10:24:45.206Z,100.00
2023-08-04T10:27:24.316Z,100.00
2023-08-04T10:30:15.592Z,100.00
2023-08-04T10:32:46.048Z,100.00
2023-08-04T10:35:33.668Z,100.00
2023-08-04T10:38:05.346Z,100.00
2023-08-04T10:40:35.837Z,100.00
2023-08-04T10:43:10.738Z,100.00
2023-08-04T10:46:04.986Z,100.00
2023-08-04T10:48:38.698Z,100.00
2023-08-04T10:51:08.791Z,100.00
2023-08-04T10:53:38.408Z,100.00
2023-08-04T10:56:09.409Z,100.00
2023-08-04T10:58:40.742Z,100.00
2023-08-04T11:01:09.883Z,100.00
2023-08-04T11:03:39.296Z,100.00
2023-08-04T11:06:09.416Z,100.00
2023-08-04T11:08:38.620Z,100.00
2023-08-04T11:11:09.045Z,100.00
2023-08-04T11:13:42.089Z,100.00
2023-08-04T11:16:11.329Z,100.00
2023-08-04T11:18:42.244Z,100.00
2023-08-04T11:21:11.691Z,100.00
2023-08-04T11:23:40.739Z,100.00
2023-08-04T11:26:11.643Z,100.00
2023-08-04T11:28:40.803Z,100.00
2023-08-04T11:31:11.674Z,100.00
2023-08-04T11:33:48.944Z,100.00
2023-08-04T11:36:41.447Z,100.00
2023-08-04T11:39:13.071Z,100.00
2023-08-04T11:41:46.516Z,100.00
2023-08-04T11:44:18.408Z,100.00
2023-08-04T11:46:47.939Z,100.00
2023-08-04T11:49:17.740Z,100.00
2023-08-04T11:51:48.135Z,100.00
2023-08-04T11:54:29.112Z,100.00
2023-08-04T11:57:01.454Z,100.00
2023-08-04T11:59:32.088Z,100.00
2023-08-04T12:02:12.887Z,100.00
2023-08-04T12:04:42.489Z,100.00
2023-08-04T12:07:12.826Z,100.00
2023-08-04T12:09:47.165Z,100.00
2023-08-04T12:12:18.186Z,100.00
2023-08-04T12:15:01.565Z,100.00
2023-08-04T12:17:45.608Z,100.00
2023-08-04T12:20:33.947Z,100.00
2023-08-04T12:23:15.937Z,100.00
2023-08-04T12:25:44.962Z,100.00
2023-08-04T12:28:14.339Z,100.00
2023-08-04T12:30:43.365Z,100.00
2023-08-04T12:33:19.339Z,100.00
2023-08-04T12:35:48.602Z,100.00
2023-08-04T12:38:18.768Z,100.00
2023-08-04T12:40:50.180Z,100.00
2023-08-04T12:43:19.171Z,100.00
2023-08-04T12:45:49.530Z,100.00
2023-08-04T12:48:19.654Z,100.00
2023-08-04T12:50:48.782Z,100.00
2023-08-04T12:53:17.988Z,100.00
2023-08-04T12:55:48.145Z,100.00
2023-08-04T12:58:17.198Z,100.00
2023-08-04T13:00:46.293Z,100.00
2023-08-04T13:03:15.595Z,100.00
2023-08-04T13:05:44.763Z,100.00
2023-08-04T13:08:13.963Z,100.00
2023-08-04T13:10:43.288Z,100.00
2023-08-04T13:13:12.558Z,100.00
2023-08-04T13:15:49.403Z,100.00
2023-08-04T13:18:19.514Z,100.00
2023-08-04T13:20:49.467Z,100.00
2023-08-04T13:23:19.003Z,100.00
2023-08-04T13:25:49.171Z,100.00
2023-08-04T13:28:18.145Z,100.00
2023-08-04T13:30:47.513Z,100.00
2023-08-04T13:33:16.725Z,100.00
